createdAt,value
2019-04-03T00:01:25.071Z,99038.70
2019-04-03T00:06:47.863Z,99045.42
2019-04-03T00:12:40.513Z,99049.91
2019-04-03T00:24:27.059Z,99031.34
2019-04-03T00:29:56.722Z,99021.73
2019-04-03T00:35:44.459Z,99019.00
2019-04-03T00:41:21.128Z,99019.54
2019-04-03T00:47:14.124Z,99009.56
2019-04-03T00:53:18.671Z,99004.39
2019-04-03T00:58:45.795Z,98997.98
2019-04-03T01:04:28.814Z,98990.05
2019-04-03T01:09:51.590Z,98982.45
2019-04-03T01:15:14.321Z,98972.66
2019-04-03T01:20:36.996Z,98965.46
2019-04-03T01:25:58.789Z,98958.98
2019-04-03T01:31:25.991Z,98964.72
2019-04-03T01:36:49.713Z,98965.27
2019-04-03T01:42:15.487Z,98949.84
2019-04-03T01:47:53.711Z,98950.56
2019-04-03T01:54:09.881Z,98936.90
2019-04-03T01:59:57.490Z,98953.44
2019-04-03T02:05:31.719Z,98936.77
2019-04-03T02:11:13.263Z,98926.87
2019-04-03T02:16:36.381Z,98936.46
2019-04-03T02:21:59.119Z,98934.77
2019-04-03T02:27:21.598Z,98929.73
2019-04-03T02:32:57.496Z,98927.70
2019-04-03T02:38:38.990Z,98924.36
2019-04-03T02:44:00.651Z,98931.82
2019-04-03T02:49:23.203Z,98919.86
2019-04-03T02:54:44.919Z,98919.13
2019-04-03T03:00:09.605Z,98910.49
2019-04-03T03:05:34.851Z,98917.50
2019-04-03T03:10:58.913Z,98912.17
2019-04-03T03:16:22.030Z,98914.44
2019-04-03T03:21:46.345Z,98918.13
2019-04-03T03:27:10.693Z,98904.73
2019-04-03T03:32:36.617Z,98903.31
2019-04-03T03:38:07.749Z,98910.68
2019-04-03T03:43:29.993Z,98919.88
2019-04-03T03:48:53.236Z,98915.97
2019-04-03T03:54:18.365Z,98914.99
2019-04-03T03:59:41.896Z,98941.05
2019-04-03T04:05:08.799Z,98928.05
2019-04-03T04:10:36.223Z,98929.11
2019-04-03T04:15:56.583Z,98925.50
2019-04-03T04:21:19.347Z,98928.99
2019-04-03T04:26:45.940Z,98934.75
2019-04-03T04:32:19.008Z,98937.03
2019-04-03T04:37:43.162Z,98938.88
2019-04-03T04:43:08.799Z,98935.55
2019-04-03T04:48:30.013Z,98951.48
2019-04-03T04:53:53.727Z,98946.02
2019-04-03T04:59:16.308Z,98946.91
2019-04-03T05:04:39.404Z,98949.84
2019-04-03T05:10:03.967Z,98948.87
2019-04-03T05:15:32.083Z,98949.12
2019-04-03T05:20:54.057Z,98958.11
2019-04-03T05:26:15.835Z,98957.94
2019-04-03T05:31:38.940Z,98961.91
2019-04-03T05:37:01.874Z,98966.92
2019-04-03T05:42:23.969Z,98959.75
2019-04-03T05:54:15.311Z,98953.81
2019-04-03T05:59:43.569Z,98951.53
2019-04-03T06:05:06.732Z,98973.47
2019-04-03T06:10:31.592Z,98947.75
2019-04-03T06:15:55.919Z,98940.70
2019-04-03T06:21:17.894Z,98948.30
2019-04-03T06:26:44.137Z,98937.91
2019-04-03T06:32:06.448Z,98938.92
2019-04-03T06:37:28.016Z,98942.80
2019-04-03T06:42:49.870Z,98940.06
2019-04-03T06:48:11.724Z,98940.80
2019-04-03T06:53:34.931Z,98932.25
2019-04-03T06:58:56.436Z,98946.30
2019-04-03T07:04:18.189Z,98926.70
2019-04-03T07:09:39.575Z,98931.21
2019-04-03T07:15:02.213Z,98935.70
2019-04-03T07:20:25.288Z,98929.70
2019-04-03T07:25:46.953Z,98931.47
2019-04-03T07:31:09.672Z,98933.19
2019-04-03T07:36:31.341Z,98931.61
2019-04-03T07:41:54.120Z,98923.39
2019-04-03T07:47:17.164Z,98932.04
2019-04-03T07:52:39.174Z,98942.16
2019-04-03T07:58:01.617Z,98927.35
2019-04-03T08:03:23.236Z,98924.18
2019-04-03T08:08:44.537Z,98924.05
2019-04-03T08:14:06.769Z,98928.22
2019-04-03T08:19:29.931Z,98925.59
2019-04-03T08:24:53.325Z,98909.09
2019-04-03T08:30:15.842Z,98915.51
2019-04-03T08:35:37.484Z,98912.02
2019-04-03T08:41:03.646Z,98907.34
2019-04-03T08:46:24.866Z,98908.59
2019-04-03T08:51:46.706Z,98906.01
2019-04-03T08:57:09.874Z,98908.08
2019-04-03T09:02:34.497Z,98903.37
2019-04-03T09:07:56.823Z,98893.73
2019-04-03T09:13:22.940Z,98897.97
2019-04-03T09:18:43.081Z,98880.24
2019-04-03T09:24:04.633Z,98881.80
2019-04-03T09:29:26.428Z,98886.75
2019-04-03T09:34:47.856Z,98879.61
2019-04-03T09:40:09.488Z,98878.56
2019-04-03T09:45:31.570Z,98881.30
2019-04-03T09:50:53.484Z,98869.98
2019-04-03T09:56:14.984Z,98862.95
2019-04-03T10:01:37.226Z,98853.88
2019-04-03T10:07:02.026Z,98850.66
2019-04-03T10:12:23.880Z,98851.91
2019-04-03T10:17:45.602Z,98842.69
2019-04-03T10:23:06.835Z,98838.55
2019-04-03T10:28:29.825Z,98829.26
2019-04-03T10:33:52.124Z,98833.98
2019-04-03T10:39:15.960Z,98829.77
2019-04-03T10:44:37.778Z,98819.36
2019-04-03T10:49:59.293Z,98810.12
2019-04-03T10:55:21.327Z,98801.50
2019-04-03T11:00:43.032Z,98806.88
2019-04-03T11:06:05.502Z,98797.61
2019-04-03T11:11:27.187Z,98792.64
2019-04-03T11:16:50.629Z,98772.97
2019-04-03T11:22:15.601Z,98769.55
2019-04-03T11:27:45.017Z,98757.43
2019-04-03T11:33:01.953Z,98757.99
2019-04-03T11:38:27.927Z,98752.45
2019-04-03T11:43:46.886Z,98743.02
2019-04-03T11:49:09.009Z,98724.58
2019-04-03T11:54:30.698Z,98739.05
2019-04-03T11:59:55.392Z,98733.92
2019-04-03T12:05:20.492Z,98730.70
2019-04-03T12:10:40.962Z,98724.61
2019-04-03T12:16:03.034Z,98713.81
2019-04-03T12:21:24.498Z,98724.59
2019-04-03T12:26:46.121Z,98709.28
2019-04-03T12:32:09.245Z,98705.28
2019-04-03T12:37:32.333Z,98695.06
2019-04-03T12:42:54.330Z,98702.27
2019-04-03T12:48:17.417Z,98686.45
2019-04-03T12:53:40.081Z,98686.64
2019-04-03T12:59:01.976Z,98686.18
2019-04-03T13:04:25.583Z,98678.20
2019-04-03T13:09:47.052Z,98684.06
2019-04-03T13:15:10.543Z,98673.84
2019-04-03T13:20:36.043Z,98679.05
2019-04-03T13:25:57.442Z,98674.92
2019-04-03T13:31:20.900Z,98673.27
2019-04-03T13:36:42.194Z,98665.45
2019-04-03T13:42:06.304Z,98678.84
2019-04-03T13:47:28.733Z,98656.03
2019-04-03T13:52:51.317Z,98673.60
2019-04-03T13:58:12.855Z,98657.30
2019-04-03T14:03:34.589Z,98656.19
2019-04-03T14:08:56.405Z,98655.14
2019-04-03T14:14:18.941Z,98651.84
2019-04-03T14:19:44.428Z,98648.12
2019-04-03T14:25:18.087Z,98653.15
2019-04-03T14:30:31.226Z,98649.90
2019-04-03T14:35:54.443Z,98655.89
2019-04-03T14:41:19.221Z,98648.34
2019-04-03T14:46:41.378Z,98637.94
2019-04-03T14:52:04.146Z,98646.34
2019-04-03T14:57:26.029Z,98640.28
2019-04-03T15:02:47.815Z,98638.21
2019-04-03T15:08:09.604Z,98645.44
2019-04-03T15:13:32.339Z,98642.02
2019-04-03T15:18:54.001Z,98651.30
2019-04-03T15:24:16.437Z,98638.14
2019-04-03T15:29:38.799Z,98635.55
2019-04-03T15:35:01.265Z,98644.61
2019-04-03T15:40:25.894Z,98644.94
2019-04-03T15:45:46.566Z,98632.03
2019-04-03T15:51:08.718Z,98641.41
2019-04-03T15:56:36.754Z,98650.41
2019-04-03T16:01:58.621Z,98650.96
2019-04-03T16:07:02.901Z,98654.19
2019-04-03T16:12:09.540Z,98650.13
2019-04-03T16:17:13.775Z,98656.69
2019-04-03T16:22:16.672Z,98663.92
2019-04-03T16:27:19.859Z,98666.28
2019-04-03T16:32:25.912Z,98659.44
2019-04-03T16:37:28.725Z,98682.43
2019-04-03T16:42:32.540Z,98664.12
2019-04-03T16:47:36.173Z,98673.64
2019-04-03T16:52:39.127Z,98667.57
2019-04-03T16:57:45.104Z,98671.80
2019-04-03T17:02:48.639Z,98672.81
2019-04-03T17:07:54.277Z,98688.19
2019-04-03T17:12:57.607Z,98676.02
2019-04-03T17:18:00.871Z,98676.72
2019-04-03T17:23:04.137Z,98664.84
2019-04-03T17:28:09.419Z,98685.93
2019-04-03T17:33:12.227Z,98687.55
2019-04-03T17:38:16.310Z,98683.61
2019-04-03T17:43:19.466Z,98699.75
2019-04-03T17:48:27.720Z,98699.82
2019-04-03T17:53:31.193Z,98712.83
2019-04-03T17:58:34.174Z,98715.82
2019-04-03T18:03:37.753Z,98724.44
2019-04-03T18:08:41.345Z,98729.23
2019-04-03T18:13:45.078Z,98720.46
2019-04-03T18:18:49.936Z,98718.41
2019-04-03T18:23:53.563Z,98724.55
2019-04-03T18:28:57.490Z,98728.52
2019-04-03T18:34:00.371Z,98736.05
2019-04-03T18:39:07.859Z,98735.34
2019-04-03T18:44:32.642Z,98734.02
2019-04-03T18:49:55.578Z,98731.98
2019-04-03T18:55:17.209Z,98737.06
2019-04-03T19:00:50.658Z,98697.10
2019-04-03T19:06:15.785Z,98741.20
2019-04-03T19:11:40.982Z,98727.31
2019-04-03T19:17:14.173Z,98748.64
2019-04-03T19:22:36.991Z,98743.31
2019-04-03T19:28:02.108Z,98746.03
2019-04-03T19:33:24.755Z,98740.50
2019-04-03T19:38:47.558Z,98741.26
2019-04-03T19:44:11.442Z,98747.38
2019-04-03T19:49:36.288Z,98752.36
2019-04-03T19:54:57.557Z,98757.80
2019-04-03T20:00:27.273Z,98768.49
2019-04-03T20:05:51.034Z,98770.08
2019-04-03T20:11:15.074Z,98767.09
2019-04-03T20:16:39.369Z,98772.65
2019-04-03T20:22:00.520Z,98775.06
2019-04-03T20:27:25.225Z,98773.19
2019-04-03T20:32:49.214Z,98785.11
2019-04-03T20:38:10.876Z,98783.44
2019-04-03T20:43:34.592Z,98781.84
2019-04-03T20:49:02.827Z,98785.02
2019-04-03T20:54:23.341Z,98785.75
2019-04-03T20:59:58.709Z,98788.46
2019-04-03T21:05:09.100Z,98797.09
2019-04-03T21:10:33.018Z,98801.22
2019-04-03T21:15:58.039Z,98808.61
2019-04-03T21:21:20.873Z,98806.52
2019-04-03T21:26:43.515Z,98810.30
2019-04-03T21:32:05.217Z,98808.66
2019-04-03T21:37:26.553Z,98815.58
2019-04-03T21:42:49.435Z,98811.52
2019-04-03T21:48:13.516Z,98813.64
2019-04-03T21:53:34.434Z,98812.60
2019-04-03T21:58:58.251Z,98805.14
2019-04-03T22:04:20.919Z,98809.95
2019-04-03T22:09:43.083Z,98808.08
2019-04-03T22:15:05.304Z,98804.00
2019-04-03T22:20:27.737Z,98810.25
2019-04-03T22:25:50.399Z,98802.81
2019-04-03T22:31:13.714Z,98803.81
2019-04-03T22:36:35.254Z,98805.84
2019-04-03T22:41:59.432Z,98801.68
2019-04-03T22:47:21.065Z,98795.74
2019-04-03T22:52:44.771Z,98793.28
2019-04-03T22:58:06.469Z,98785.97
2019-04-03T23:03:28.368Z,98786.17
2019-04-03T23:08:53.506Z,98799.81
2019-04-03T23:14:13.933Z,98778.03
2019-04-03T23:19:36.030Z,98771.18
2019-04-03T23:24:59.278Z,98753.15
2019-04-03T23:30:23.353Z,98772.01
2019-04-03T23:35:45.049Z,98753.30
2019-04-03T23:41:06.821Z,98747.44
2019-04-03T23:46:29.616Z,98756.33
2019-04-03T23:51:52.126Z,98744.87
2019-04-03T23:57:13.303Z,98735.22
